createdAt,value
2019-06-01T00:00:37.964Z,102176.33
2019-06-01T00:03:10.591Z,102174.19
2019-06-01T00:05:42.573Z,102170.25
2019-06-01T00:08:14.319Z,102165.34
2019-06-01T00:10:47.719Z,102163.13
2019-06-01T00:13:19.430Z,102163.13
2019-06-01T00:15:50.949Z,102165.81
2019-06-01T00:18:22.489Z,102170.28
2019-06-01T00:20:54.948Z,102156.44
2019-06-01T00:23:26.587Z,102164.00
2019-06-01T00:25:58.120Z,102164.92
2019-06-01T00:28:29.618Z,102166.66
2019-06-01T00:31:01.142Z,102165.31
2019-06-01T00:33:32.757Z,102164.42
2019-06-01T00:36:04.496Z,102161.74
2019-06-01T00:38:36.042Z,102161.77
2019-06-01T00:41:07.735Z,102155.16
2019-06-01T00:43:39.364Z,102161.06
2019-06-01T00:46:10.935Z,102164.14
2019-06-01T00:48:43.790Z,102164.16
2019-06-01T00:51:15.695Z,102168.23
2019-06-01T00:53:49.571Z,102166.58
2019-06-01T00:56:21.280Z,102164.71
2019-06-01T00:58:53.937Z,102163.88
2019-06-01T01:01:25.723Z,102161.20
2019-06-01T01:03:57.244Z,102161.67
2019-06-01T01:06:28.796Z,102166.55
2019-06-01T01:09:00.304Z,102162.95
2019-06-01T01:11:33.471Z,102151.86
2019-06-01T01:14:06.639Z,102154.11
2019-06-01T01:16:38.212Z,102150.09
2019-06-01T01:19:09.737Z,102151.44
2019-06-01T01:21:41.601Z,102151.44
2019-06-01T01:24:13.111Z,102145.22
2019-06-01T01:26:44.814Z,102150.09
2019-06-01T01:29:16.504Z,102147.90
2019-06-01T01:31:49.163Z,102148.78
2019-06-01T01:34:20.768Z,102146.63
2019-06-01T01:36:53.044Z,102141.75
2019-06-01T01:39:25.620Z,102143.56
2019-06-01T01:41:58.532Z,102140.02
2019-06-01T01:44:30.256Z,102136.42
2019-06-01T01:47:01.901Z,102136.88
2019-06-01T01:49:33.403Z,102135.06
2019-06-01T01:52:04.932Z,102132.44
2019-06-01T01:54:36.750Z,102130.16
2019-06-01T01:57:08.240Z,102123.52
2019-06-01T01:59:41.444Z,102133.77
2019-06-01T02:02:13.241Z,102137.34
2019-06-01T02:04:44.789Z,102144.03
2019-06-01T02:07:16.278Z,102148.94
2019-06-01T02:09:51.020Z,102147.12
2019-06-01T02:12:23.789Z,102146.23
2019-06-01T02:14:55.596Z,102144.42
2019-06-01T02:17:27.215Z,102147.08
2019-06-01T02:19:58.654Z,102140.34
2019-06-01T02:22:30.173Z,102146.09
2019-06-01T02:25:02.228Z,102148.31
2019-06-01T02:27:34.008Z,102142.09
2019-06-01T02:30:06.455Z,102147.89
2019-06-01T02:32:37.990Z,102152.36
2019-06-01T02:35:09.831Z,102149.20
2019-06-01T02:37:41.344Z,102158.05
2019-06-01T02:40:13.587Z,102158.10
2019-06-01T02:42:45.332Z,102150.97
2019-06-01T02:45:17.827Z,102157.16
2019-06-01T02:47:49.834Z,102154.48
2019-06-01T02:50:21.581Z,102154.00
2019-06-01T02:52:53.178Z,102160.67
2019-06-01T02:55:25.172Z,102158.02
2019-06-01T02:57:57.981Z,102157.19
2019-06-01T03:01:17.940Z,102152.78
2019-06-01T03:03:50.312Z,102155.48
2019-06-01T03:06:21.905Z,102155.05
2019-06-01T03:08:55.579Z,102155.55
2019-06-01T03:11:32.944Z,102156.52
2019-06-01T03:14:06.738Z,102150.34
2019-06-01T03:16:41.180Z,102153.96
2019-06-01T03:19:14.155Z,102150.45
2019-06-01T03:21:50.027Z,102155.41
2019-06-01T03:24:26.231Z,102159.91
2019-06-01T03:26:57.960Z,102157.73
2019-06-01T03:29:32.360Z,102159.11
2019-06-01T03:32:23.976Z,102164.05
2019-06-01T03:34:37.562Z,102159.15
2019-06-01T03:37:09.123Z,102157.42
2019-06-01T03:39:40.678Z,102154.74
2019-06-01T03:42:12.703Z,102150.32
2019-06-01T03:44:44.300Z,102154.81
2019-06-01T03:47:15.826Z,102154.81
2019-06-01T03:49:47.624Z,102149.45
2019-06-01T03:52:20.574Z,102153.48
2019-06-01T03:54:52.147Z,102149.05
2019-06-01T03:57:25.247Z,102142.00
2019-06-01T03:59:56.826Z,102146.14
2019-06-01T04:02:33.104Z,102147.54
2019-06-01T04:05:03.314Z,102149.80
2019-06-01T04:07:35.213Z,102154.77
2019-06-01T04:10:07.980Z,102156.48
2019-06-01T04:12:39.634Z,102170.59
2019-06-01T04:15:14.589Z,102165.17
2019-06-01T04:17:44.825Z,102166.91
2019-06-01T04:20:17.985Z,102165.05
2019-06-01T04:22:49.657Z,102168.13
2019-06-01T04:25:21.202Z,102173.02
2019-06-01T04:27:52.785Z,102173.02
2019-06-01T04:30:28.061Z,102175.67
2019-06-01T04:33:00.049Z,102173.42
2019-06-01T04:35:31.895Z,102172.90
2019-06-01T04:38:03.582Z,102182.23
2019-06-01T04:40:35.519Z,102187.93
2019-06-01T04:43:07.867Z,102185.19
2019-06-01T04:45:39.558Z,102176.66
2019-06-01T04:48:12.443Z,102169.94
2019-06-01T04:50:44.141Z,102173.50
2019-06-01T04:53:15.799Z,102169.43
2019-06-01T04:55:47.365Z,102173.89
2019-06-01T04:58:19.458Z,102174.69
2019-06-01T05:00:51.523Z,102176.86
2019-06-01T05:03:23.078Z,102175.47
2019-06-01T05:05:54.633Z,102172.25
2019-06-01T05:08:26.389Z,102173.03
2019-06-01T05:10:58.025Z,102173.80
2019-06-01T05:13:29.599Z,102174.09
2019-06-01T05:16:01.401Z,102174.38
2019-06-01T05:18:32.928Z,102176.90
2019-06-01T05:21:04.518Z,102173.23
2019-06-01T05:23:36.056Z,102174.42
2019-06-01T05:26:09.222Z,102177.01
2019-06-01T05:28:40.722Z,102175.09
2019-06-01T05:31:16.729Z,102177.64
2019-06-01T05:33:45.923Z,102179.64
2019-06-01T05:36:18.331Z,102180.80
2019-06-01T05:38:49.998Z,102173.55
2019-06-01T05:41:21.903Z,102180.08
2019-06-01T05:43:53.521Z,102182.13
2019-06-01T05:46:25.286Z,102187.72
2019-06-01T05:48:57.827Z,102188.45
2019-06-01T05:51:31.526Z,102180.33
2019-06-01T05:54:03.066Z,102186.80
2019-06-01T05:56:35.818Z,102186.31
2019-06-01T05:59:07.747Z,102186.39
2019-06-01T06:01:39.316Z,102191.88
2019-06-01T06:04:11.332Z,102193.19
2019-06-01T06:06:43.066Z,102200.02
2019-06-01T06:09:14.829Z,102199.00
2019-06-01T06:11:46.440Z,102196.90
2019-06-01T06:14:20.665Z,102198.02
2019-06-01T06:16:52.517Z,102199.00
2019-06-01T06:19:24.056Z,102200.20
2019-06-01T06:21:55.606Z,102203.69
2019-06-01T06:24:27.154Z,102196.73
2019-06-01T06:26:58.696Z,102197.05
2019-06-01T06:29:30.293Z,102201.12
2019-06-01T06:32:01.846Z,102203.11
2019-06-01T06:34:33.380Z,102207.84
2019-06-01T06:37:04.950Z,102204.21
2019-06-01T06:39:36.515Z,102203.78
2019-06-01T06:42:08.191Z,102200.59
2019-06-01T06:44:39.753Z,102206.22
2019-06-01T06:47:11.314Z,102206.42
2019-06-01T06:49:42.827Z,102200.64
2019-06-01T06:52:15.226Z,102201.69
2019-06-01T06:54:46.934Z,102200.89
2019-06-01T06:57:20.074Z,102199.53
2019-06-01T06:59:54.458Z,102203.61
2019-06-01T07:02:27.067Z,102209.42
2019-06-01T07:04:58.837Z,102198.55
2019-06-01T07:07:31.827Z,102199.23
2019-06-01T07:10:03.399Z,102206.17
2019-06-01T07:12:35.115Z,102202.71
2019-06-01T07:15:07.262Z,102199.91
2019-06-01T07:17:38.790Z,102197.06
2019-06-01T07:20:10.891Z,102203.80
2019-06-01T07:22:42.449Z,102195.37
2019-06-01T07:25:13.987Z,102201.03
2019-06-01T07:27:45.534Z,102203.59
2019-06-01T07:30:17.851Z,102202.64
2019-06-01T07:32:51.082Z,102199.92
2019-06-01T07:35:22.595Z,102207.55
2019-06-01T07:37:54.315Z,102207.45
2019-06-01T07:40:26.698Z,102199.68
2019-06-01T07:42:58.413Z,102208.45
2019-06-01T07:45:33.425Z,102208.63
2019-06-01T07:48:03.441Z,102211.52
2019-06-01T07:50:36.287Z,102212.84
2019-06-01T07:53:07.865Z,102209.69
2019-06-01T07:55:39.387Z,102211.08
2019-06-01T07:58:10.940Z,102216.97
2019-06-01T08:00:42.487Z,102209.13
2019-06-01T08:03:14.091Z,102211.44
2019-06-01T08:05:45.784Z,102216.19
2019-06-01T08:08:17.323Z,102220.03
2019-06-01T08:10:49.039Z,102223.20
2019-06-01T08:13:21.453Z,102215.85
2019-06-01T08:15:53.427Z,102209.44
2019-06-01T08:18:26.007Z,102209.16
2019-06-01T08:20:58.437Z,102209.53
2019-06-01T08:23:30.352Z,102205.29
2019-06-01T08:26:02.095Z,102207.55
2019-06-01T08:28:34.854Z,102210.46
2019-06-01T08:31:06.440Z,102213.33
2019-06-01T08:33:38.309Z,102208.92
2019-06-01T08:36:09.830Z,102203.95
2019-06-01T08:38:41.383Z,102202.16
2019-06-01T08:41:13.178Z,102205.76
2019-06-01T08:43:44.705Z,102203.42
2019-06-01T08:46:16.517Z,102203.25
2019-06-01T08:48:48.050Z,102208.76
2019-06-01T08:51:20.073Z,102212.95
2019-06-01T08:53:51.560Z,102216.86
2019-06-01T08:56:24.203Z,102215.58
2019-06-01T08:58:55.878Z,102212.05
2019-06-01T09:01:28.640Z,102205.67
2019-06-01T09:04:00.432Z,102198.77
2019-06-01T09:06:33.212Z,102206.28
2019-06-01T09:09:06.832Z,102210.34
2019-06-01T09:11:38.370Z,102205.49
2019-06-01T09:14:09.929Z,102218.00
2019-06-01T09:16:41.491Z,102216.67
2019-06-01T09:19:13.032Z,102212.23
2019-06-01T09:21:44.517Z,102219.59
2019-06-01T09:24:16.094Z,102209.80
2019-06-01T09:26:47.839Z,102211.73
2019-06-01T09:29:19.446Z,102210.41
2019-06-01T09:31:50.964Z,102210.38
2019-06-01T09:34:22.761Z,102212.33
2019-06-01T09:36:55.663Z,102212.28
2019-06-01T09:39:28.990Z,102211.81
2019-06-01T09:42:00.697Z,102205.07
2019-06-01T09:44:33.487Z,102201.72
2019-06-01T09:47:05.198Z,102199.00
2019-06-01T09:49:38.046Z,102195.38
2019-06-01T09:52:12.488Z,102199.29
2019-06-01T09:54:43.302Z,102205.39
2019-06-01T09:57:15.142Z,102192.97
2019-06-01T09:59:46.682Z,102193.66
2019-06-01T10:02:18.205Z,102192.30
2019-06-01T10:04:49.815Z,102196.56
2019-06-01T10:07:21.372Z,102201.91
2019-06-01T10:09:53.155Z,102203.80
2019-06-01T10:12:24.802Z,102201.41
2019-06-01T10:14:56.433Z,102196.91
2019-06-01T10:17:27.996Z,102189.17
2019-06-01T10:19:59.802Z,102185.45
2019-06-01T10:22:31.424Z,102183.75
2019-06-01T10:25:03.148Z,102187.64
2019-06-01T10:27:34.675Z,102179.74
2019-06-01T10:30:07.475Z,102192.96
2019-06-01T10:32:39.921Z,102195.75
2019-06-01T10:35:11.836Z,102194.57
2019-06-01T10:37:44.864Z,102188.47
2019-06-01T10:40:16.697Z,102180.69
2019-06-01T10:42:48.339Z,102179.80
2019-06-01T10:45:21.305Z,102174.65
2019-06-01T10:47:53.018Z,102185.08
2019-06-01T10:50:24.782Z,102187.92
2019-06-01T10:52:56.490Z,102188.70
2019-06-01T10:55:28.254Z,102188.73
2019-06-01T10:57:59.868Z,102184.62
2019-06-01T11:00:39.832Z,102183.28
2019-06-01T11:03:05.253Z,102179.03
2019-06-01T11:05:36.854Z,102182.53
2019-06-01T11:08:08.407Z,102183.47
2019-06-01T11:10:40.981Z,102175.08
2019-06-01T11:13:13.730Z,102170.58
2019-06-01T11:15:45.532Z,102168.11
2019-06-01T11:18:17.058Z,102170.67
2019-06-01T11:20:49.027Z,102172.91
2019-06-01T11:23:20.687Z,102182.91
2019-06-01T11:25:52.327Z,102176.59
2019-06-01T11:28:23.916Z,102165.23
2019-06-01T11:30:55.543Z,102164.36
2019-06-01T11:33:27.527Z,102157.08
2019-06-01T11:35:59.228Z,102162.45
2019-06-01T11:38:30.788Z,102165.47
2019-06-01T11:41:02.370Z,102161.17
2019-06-01T11:43:34.555Z,102158.87
2019-06-01T11:46:06.352Z,102165.19
2019-06-01T11:48:39.217Z,102162.48
2019-06-01T11:51:10.851Z,102172.83
2019-06-01T11:53:43.468Z,102164.22
2019-06-01T11:56:16.238Z,102159.01
2019-06-01T11:58:47.793Z,102157.95
2019-06-01T12:01:19.395Z,102156.78
2019-06-01T12:03:51.245Z,102155.67
2019-06-01T12:06:23.055Z,102149.97
2019-06-01T12:08:54.662Z,102143.84
2019-06-01T12:11:27.108Z,102144.14
2019-06-01T12:13:58.707Z,102138.84
2019-06-01T12:16:30.333Z,102135.91
2019-06-01T12:19:02.177Z,102148.66
2019-06-01T12:21:33.760Z,102137.63
2019-06-01T12:24:05.443Z,102128.19
2019-06-01T12:26:37.285Z,102133.40
2019-06-01T12:29:08.843Z,102132.38
2019-06-01T12:31:41.645Z,102127.16
2019-06-01T12:34:13.404Z,102132.72
2019-06-01T12:36:46.277Z,102129.16
2019-06-01T12:39:18.882Z,102124.78
2019-06-01T12:41:51.717Z,102124.73
2019-06-01T12:44:23.444Z,102123.56
2019-06-01T12:46:55.066Z,102127.58
2019-06-01T12:49:26.983Z,102125.05
2019-06-01T12:51:58.820Z,102123.52
2019-06-01T12:54:30.401Z,102121.38
2019-06-01T12:57:04.200Z,102120.51
2019-06-01T12:59:35.798Z,102123.30
2019-06-01T13:02:07.364Z,102113.42
2019-06-01T13:04:40.626Z,102110.05
2019-06-01T13:07:12.298Z,102117.39
2019-06-01T13:09:44.153Z,102112.31
2019-06-01T13:12:16.843Z,102109.41
2019-06-01T13:14:49.352Z,102110.71
2019-06-01T13:17:21.424Z,102100.61
2019-06-01T13:19:53.402Z,102103.67
2019-06-01T13:22:25.178Z,102099.40
2019-06-01T13:24:56.851Z,102094.32
2019-06-01T13:27:28.415Z,102088.25
2019-06-01T13:30:00.005Z,102088.39
2019-06-01T13:32:32.455Z,102086.81
2019-06-01T13:35:04.547Z,102088.90
2019-06-01T13:37:36.175Z,102089.78
2019-06-01T13:40:08.184Z,102081.95
2019-06-01T13:42:39.742Z,102084.08
2019-06-01T13:45:12.029Z,102080.41
2019-06-01T13:47:43.603Z,102081.30
2019-06-01T13:50:15.528Z,102075.88
2019-06-01T13:52:47.968Z,102070.03
2019-06-01T13:55:20.712Z,102073.47
2019-06-01T13:57:52.539Z,102072.45
2019-06-01T14:00:30.637Z,102074.56
2019-06-01T14:02:59.271Z,102069.52
2019-06-01T14:05:30.832Z,102071.37
2019-06-01T14:08:02.656Z,102069.84
2019-06-01T14:10:34.233Z,102074.80
2019-06-01T14:13:05.820Z,102068.38
2019-06-01T14:15:37.427Z,102071.31
2019-06-01T14:18:10.359Z,102066.83
2019-06-01T14:20:41.986Z,102061.59
2019-06-01T14:23:14.656Z,102053.52
2019-06-01T14:25:46.242Z,102054.55
2019-06-01T14:28:18.317Z,102052.80
2019-06-01T14:30:50.267Z,102046.69
2019-06-01T14:33:21.901Z,102042.14
2019-06-01T14:35:54.632Z,102045.48
2019-06-01T14:38:26.370Z,102042.30
2019-06-01T14:40:58.050Z,102042.59
2019-06-01T14:43:29.623Z,102035.62
2019-06-01T14:46:01.169Z,102038.86
2019-06-01T14:48:32.839Z,102033.81
2019-06-01T14:51:04.440Z,102025.29
2019-06-01T14:53:36.361Z,102032.69
2019-06-01T14:56:07.936Z,102026.36
2019-06-01T14:58:39.612Z,102021.03
2019-06-01T15:01:11.127Z,102027.16
2019-06-01T15:03:42.701Z,102028.28
2019-06-01T15:06:14.213Z,102021.50
2019-06-01T15:09:06.951Z,102017.18
2019-06-01T15:11:19.342Z,102014.00
2019-06-01T15:13:50.959Z,102013.98
2019-06-01T15:16:22.699Z,102006.00
2019-06-01T15:18:54.780Z,102002.80
2019-06-01T15:21:27.517Z,101996.91
2019-06-01T15:23:59.277Z,101998.43
2019-06-01T15:26:32.486Z,101994.27
2019-06-01T15:29:05.225Z,101995.14
2019-06-01T15:31:37.008Z,101994.67
2019-06-01T15:34:08.579Z,101990.05
2019-06-01T15:36:40.418Z,101987.42
2019-06-01T15:39:24.211Z,101986.69
2019-06-01T15:41:45.362Z,101981.75
2019-06-01T15:44:17.175Z,101976.39
2019-06-01T15:46:48.974Z,101973.21
2019-06-01T15:49:20.498Z,101975.52
2019-06-01T15:51:52.069Z,101965.47
2019-06-01T15:54:23.764Z,101970.33
2019-06-01T15:56:56.333Z,101960.05
2019-06-01T15:59:29.920Z,101957.91
2019-06-01T16:02:03.436Z,101959.90
2019-06-01T16:04:35.196Z,101955.09
2019-06-01T16:07:06.816Z,101949.22
2019-06-01T16:09:43.056Z,101946.95
2019-06-01T16:12:12.452Z,101943.24
2019-06-01T16:14:44.414Z,101949.22
2019-06-01T16:17:16.341Z,101938.97
2019-06-01T16:19:49.534Z,101942.16
2019-06-01T16:22:21.739Z,101943.27
2019-06-01T16:24:54.018Z,101943.38
2019-06-01T16:27:25.683Z,101942.93
2019-06-01T16:29:57.224Z,101939.45
2019-06-01T16:32:28.979Z,101934.84
2019-06-01T16:35:01.107Z,101935.05
2019-06-01T16:37:33.978Z,101936.02
2019-06-01T16:40:09.979Z,101931.21
2019-06-01T16:42:39.344Z,101928.42
2019-06-01T16:45:11.326Z,101932.45
2019-06-01T16:47:42.954Z,101928.75
2019-06-01T16:50:15.731Z,101929.08
2019-06-01T16:52:47.329Z,101925.70
2019-06-01T16:55:20.086Z,101928.11
2019-06-01T16:57:51.598Z,101917.13
2019-06-01T17:00:23.989Z,101923.44
2019-06-01T17:02:56.854Z,101919.53
2019-06-01T17:05:28.975Z,101918.32
2019-06-01T17:08:00.845Z,101924.64
2019-06-01T17:10:33.556Z,101922.55
2019-06-01T17:13:08.332Z,101912.75
2019-06-01T17:15:38.953Z,101905.73
2019-06-01T17:18:10.784Z,101902.86
2019-06-01T17:20:47.207Z,101902.05
2019-06-01T17:23:26.935Z,101900.15
2019-06-01T17:25:52.273Z,101895.84
2019-06-01T17:28:24.220Z,101887.78
2019-06-01T17:30:55.808Z,101888.91
2019-06-01T17:33:27.377Z,101895.13
2019-06-01T17:35:58.979Z,101890.76
2019-06-01T17:38:30.685Z,101886.25
2019-06-01T17:41:02.305Z,101887.47
2019-06-01T17:43:34.041Z,101877.66
2019-06-01T17:46:05.806Z,101879.83
2019-06-01T17:48:37.766Z,101881.97
2019-06-01T17:51:09.314Z,101880.78
2019-06-01T17:53:41.228Z,101877.73
2019-06-01T17:56:13.086Z,101871.13
2019-06-01T17:58:44.712Z,101873.83
2019-06-01T18:01:16.281Z,101872.95
2019-06-01T18:03:48.099Z,101872.70
2019-06-01T18:06:19.757Z,101864.27
2019-06-01T18:08:51.373Z,101864.00
2019-06-01T18:11:23.155Z,101854.20
2019-06-01T18:13:54.986Z,101853.96
2019-06-01T18:16:26.787Z,101852.62
2019-06-01T18:18:58.389Z,101850.80
2019-06-01T18:21:33.381Z,101852.05
2019-06-01T18:24:06.187Z,101848.22
2019-06-01T18:26:37.999Z,101848.73
2019-06-01T18:29:10.662Z,101845.36
2019-06-01T18:31:44.219Z,101843.67
2019-06-01T18:34:16.035Z,101842.66
2019-06-01T18:36:47.664Z,101838.73
2019-06-01T18:39:19.272Z,101838.73
2019-06-01T18:41:50.778Z,101838.75
2019-06-01T18:44:22.345Z,101836.42
2019-06-01T18:46:54.572Z,101836.59
2019-06-01T18:49:26.331Z,101837.29
2019-06-01T18:51:57.919Z,101841.69
2019-06-01T18:54:29.596Z,101835.55
2019-06-01T18:59:53.238Z,101829.02
2019-06-01T19:02:25.001Z,101827.86
2019-06-01T19:04:56.539Z,101824.09
2019-06-01T19:07:28.150Z,101828.94
2019-06-01T19:09:59.889Z,101824.06
2019-06-01T19:12:31.917Z,101816.48
2019-06-01T19:15:03.772Z,101812.63
2019-06-01T19:17:35.383Z,101816.33
2019-06-01T19:20:08.493Z,101808.95
2019-06-01T19:22:41.209Z,101807.77
2019-06-01T19:25:14.530Z,101807.74
2019-06-01T19:27:47.080Z,101802.78
2019-06-01T19:30:35.328Z,101805.27
2019-06-01T19:33:14.285Z,101803.45
2019-06-01T19:35:46.413Z,101808.86
2019-06-01T19:38:20.066Z,101806.16
2019-06-01T19:40:51.672Z,101805.87
2019-06-01T19:43:24.333Z,101799.77
2019-06-01T19:45:56.072Z,101805.56
2019-06-01T19:48:27.624Z,101810.58
2019-06-01T19:51:12.492Z,101811.71
2019-06-01T19:53:44.296Z,101804.91
2019-06-01T19:56:17.039Z,101799.34
2019-06-01T19:58:48.818Z,101797.06
2019-06-01T20:01:20.626Z,101795.91
2019-06-01T20:03:53.345Z,101795.38
2019-06-01T20:06:25.166Z,101793.86
2019-06-01T20:08:59.112Z,101795.20
2019-06-01T20:11:32.113Z,101794.16
2019-06-01T20:14:03.866Z,101794.69
2019-06-01T20:16:36.061Z,101796.80
2019-06-01T20:19:08.871Z,101791.83
2019-06-01T20:21:40.734Z,101789.52
2019-06-01T20:24:15.148Z,101787.25
2019-06-01T20:26:49.341Z,101784.67
2019-06-01T20:29:21.790Z,101780.56
2019-06-01T20:31:54.565Z,101787.30
2019-06-01T20:34:26.789Z,101779.25
2019-06-01T20:36:59.225Z,101778.30
2019-06-01T20:39:31.111Z,101781.06
2019-06-01T20:42:20.299Z,101770.20
2019-06-01T20:44:37.751Z,101773.59
2019-06-01T20:47:10.267Z,101771.38
2019-06-01T20:49:46.494Z,101767.60
2019-06-01T20:52:19.013Z,101762.52
2019-06-01T20:54:51.081Z,101762.47
2019-06-01T20:57:24.020Z,101760.92
2019-06-01T20:59:55.982Z,101765.11
2019-06-01T21:02:29.266Z,101760.64
2019-06-01T21:05:01.433Z,101761.88
2019-06-01T21:07:33.913Z,101758.83
2019-06-01T21:10:06.633Z,101759.00
2019-06-01T21:12:46.210Z,101748.45
2019-06-01T21:15:12.252Z,101751.80
2019-06-01T21:17:43.822Z,101750.98
2019-06-01T21:20:22.277Z,101755.13
2019-06-01T21:22:49.581Z,101751.05
2019-06-01T21:25:21.177Z,101746.70
2019-06-01T21:27:52.745Z,101742.72
2019-06-01T21:30:25.775Z,101744.23
2019-06-01T21:32:57.569Z,101735.55
2019-06-01T21:35:29.251Z,101738.66
2019-06-01T21:38:01.018Z,101738.19
2019-06-01T21:40:32.808Z,101729.52
2019-06-01T21:43:22.968Z,101733.50
2019-06-01T21:45:39.554Z,101732.16
2019-06-01T21:48:11.247Z,101729.45
2019-06-01T21:50:42.932Z,101726.95
2019-06-01T21:53:15.852Z,101727.16
2019-06-01T21:55:47.651Z,101727.46
2019-06-01T21:58:20.956Z,101725.81
2019-06-01T22:00:53.270Z,101721.16
2019-06-01T22:03:27.256Z,101713.52
2019-06-01T22:05:59.143Z,101716.69
2019-06-01T22:08:30.761Z,101709.62
2019-06-01T22:11:02.413Z,101707.81
2019-06-01T22:13:34.325Z,101706.16
2019-06-01T22:16:06.164Z,101708.09
2019-06-01T22:18:37.807Z,101707.34
2019-06-01T22:21:09.389Z,101707.61
2019-06-01T22:23:42.448Z,101697.99
2019-06-01T22:26:14.110Z,101700.17
2019-06-01T22:28:45.988Z,101696.97
2019-06-01T22:31:18.259Z,101694.73
2019-06-01T22:33:50.338Z,101697.81
2019-06-01T22:36:22.643Z,101691.66
2019-06-01T22:38:54.441Z,101701.66
2019-06-01T22:41:26.270Z,101688.97
2019-06-01T22:43:57.847Z,101685.74
2019-06-01T22:46:29.480Z,101683.45
2019-06-01T22:49:01.662Z,101683.57
2019-06-01T22:51:34.866Z,101683.91
2019-06-01T22:54:06.686Z,101683.88
2019-06-01T22:56:38.258Z,101678.80
2019-06-01T22:59:10.073Z,101673.22
2019-06-01T23:01:41.826Z,101665.98
2019-06-01T23:04:13.438Z,101670.36
2019-06-01T23:06:45.106Z,101664.98
2019-06-01T23:09:16.660Z,101668.56
2019-06-01T23:11:48.612Z,101665.47
2019-06-01T23:14:21.262Z,101656.71
2019-06-01T23:16:53.029Z,101659.77
2019-06-01T23:19:25.704Z,101659.52
2019-06-01T23:21:57.805Z,101655.88
2019-06-01T23:24:30.312Z,101658.86
2019-06-01T23:27:03.957Z,101647.67
2019-06-01T23:29:35.581Z,101653.25
2019-06-01T23:32:07.353Z,101651.08
2019-06-01T23:34:40.120Z,101643.21
2019-06-01T23:37:11.760Z,101641.61
2019-06-01T23:39:43.769Z,101639.04
2019-06-01T23:42:15.450Z,101631.95
2019-06-01T23:44:46.993Z,101631.83
2019-06-01T23:47:18.970Z,101632.78
2019-06-01T23:49:50.481Z,101634.83
2019-06-01T23:52:23.467Z,101626.83
2019-06-01T23:54:55.186Z,101625.54
2019-06-01T23:57:27.738Z,101626.94
2019-06-01T23:59:59.479Z,101626.57
